Timimoun, Algeria
Current Conditions -  °F | °C
As of 7:00 AM on Wednesday 28 Jan 2015 (Local Time) from DAUT Reporting Station
Clear Clear  
Wind Chill: 39°   Ceiling: Unl
Heat Index: 39°   Visibility: 6mi
Dew Point: 21°   Wind: 0mph
Humidity: 49%   Direction: NA
Pressure: 30.21"   Gusts: NA
Location:  29.26°N, 0.23°E
Report Text: DAUT 280600Z 00000KT CAVOK 04/M06 Q1023
Loading
Personal Weather Stations






























Interactive Weather Map New forecast layout! Learn more

10-Day Weather Forecast

Advertisements
Track Severe Weather on mobile